Time;durP1;ratioP1;P1;durP2;ratioP2;P2;SDS_P1;SDS_P2;PMS_P1;PMS_P2;Temp;Humidity;BMP_temperature;BMP_pressure;BME280_temperature;BME280_humidity;BME280_pressure;Samples;Min_cycle;Max_cycle;Signal;HPM_P1;HPM_P2
2021/12/31 00:02:26;;;;;;;7.70;2.43;;;11.40;99.90;;;12.15;100.00;98766.81;5026118;28;20468;-83
2021/12/31 00:04:58;;;;;;;6.83;2.43;;;11.40;99.90;;;12.15;100.00;98769.41;5020968;28;20458;-82
2021/12/31 00:07:29;;;;;;;7.27;2.23;;;11.30;99.90;;;12.08;100.00;98760.66;5025929;28;20466;-82
2021/12/31 00:10:00;;;;;;;7.90;2.50;;;11.30;99.90;;;12.09;100.00;98765.72;5021985;28;21042;-82
2021/12/31 00:12:32;;;;;;;7.23;2.37;;;11.30;99.90;;;12.08;100.00;98760.66;5031909;28;20469;-83
2021/12/31 00:15:02;;;;;;;10.70;2.97;;;11.20;99.90;;;12.06;100.00;98760.84;5028949;28;20524;-82
2021/12/31 00:17:32;;;;;;;7.30;2.67;;;11.20;99.90;;;12.06;100.00;98762.63;5024696;28;20497;-82
2021/12/31 00:20:06;;;;;;;4.60;2.10;;;11.20;99.90;;;12.04;100.00;98754.94;5018918;28;20991;-82
2021/12/31 00:25:28;;;;;;;5.10;2.30;;;11.20;99.90;;;11.96;100.00;98738.50;5019742;28;20470;-83
2021/12/31 00:27:57;;;;;;;6.10;2.13;;;11.10;99.90;;;11.96;100.00;98744.56;5033432;28;20462;-82
2021/12/31 00:30:28;;;;;;;10.90;2.53;;;11.10;99.90;;;11.99;100.00;98749.44;5025958;28;20487;-83
2021/12/31 00:33:01;;;;;;;16.80;2.97;;;11.20;99.90;;;11.98;100.00;98745.19;5027649;28;20494;-83
2021/12/31 00:35:33;;;;;;;5.17;2.40;;;11.20;99.90;;;12.00;100.00;98737.97;5018334;28;20458;-83
2021/12/31 00:38:04;;;;;;;9.60;2.50;;;11.20;99.90;;;11.99;100.00;98746.00;5024491;28;20620;-82
2021/12/31 00:40:35;;;;;;;10.23;2.90;;;11.20;99.90;;;11.94;100.00;98740.50;5032308;28;21125;-83
2021/12/31 00:43:10;;;;;;;17.63;3.00;;;11.20;99.90;;;11.94;100.00;98735.25;5028261;28;20465;-83
2021/12/31 00:45:41;;;;;;;4.17;2.27;;;11.10;99.90;;;11.94;100.00;98736.03;5018772;28;20498;-83
2021/12/31 00:48:13;;;;;;;8.70;3.07;;;11.10;99.90;;;11.90;100.00;98733.97;5023545;28;20564;-82
2021/12/31 00:50:43;;;;;;;4.93;2.13;;;11.10;99.90;;;11.93;100.00;98733.63;5027294;28;20459;-82
2021/12/31 00:53:15;;;;;;;11.13;2.80;;;11.10;99.90;;;11.95;100.00;98729.81;5031199;28;20469;-83
2021/12/31 00:55:45;;;;;;;7.07;2.60;;;11.10;99.90;;;11.97;100.00;98719.16;5019835;28;20520;-83
2021/12/31 00:58:17;;;;;;;15.80;2.80;;;11.20;99.90;;;11.96;100.00;98710.47;5025974;28;20458;-82
2021/12/31 01:00:48;;;;;;;15.97;3.37;;;11.20;99.90;;;11.96;100.00;98713.09;5021885;28;21307;-83
2021/12/31 01:03:18;;;;;;;9.30;2.80;;;11.20;99.90;;;11.91;100.00;98704.13;5027069;28;20466;-83
2021/12/31 01:05:49;;;;;;;2.87;2.27;;;11.10;99.90;;;11.91;100.00;98710.19;5028049;28;20986;-82
2021/12/31 01:08:21;;;;;;;14.43;2.30;;;11.10;99.90;;;11.92;100.00;98708.38;5027619;28;20528;-83
2021/12/31 01:10:51;;;;;;;4.43;2.43;;;11.10;99.90;;;11.93;100.00;98710.84;5025458;28;20544;-82
2021/12/31 01:13:31;;;;;;;10.83;2.30;;;11.10;99.90;;;11.95;100.00;98718.50;5025441;28;20462;-83
2021/12/31 01:16:02;;;;;;;11.73;3.13;;;11.20;99.90;;;11.97;100.00;98711.31;5020686;28;20463;-82
2021/12/31 01:21:16;;;;;;;9.43;2.70;;;11.10;99.90;;;11.97;100.00;98711.31;5028229;28;20513;-83
2021/12/31 01:23:47;;;;;;;10.07;2.60;;;11.20;99.90;;;11.96;100.00;98725.38;5024369;28;20466;-83
2021/12/31 01:26:20;;;;;;;10.47;2.20;;;11.20;99.90;;;11.97;100.00;98721.78;5027816;28;20497;-83
2021/12/31 01:28:51;;;;;;;5.80;2.67;;;11.30;99.90;;;11.95;100.00;98718.50;5029156;28;20545;-83
2021/12/31 01:31:24;;;;;;;9.63;2.63;;;11.20;99.90;;;11.93;100.00;98726.56;5024854;28;20924;-83
2021/12/31 01:33:55;;;;;;;3.47;2.00;;;11.20;99.90;;;11.95;100.00;98723.75;5021059;28;20840;-83
2021/12/31 01:36:25;;;;;;;16.40;2.40;;;11.20;99.90;;;11.93;100.00;98725.75;5026196;28;20492;-83
2021/12/31 01:38:56;;;;;;;13.33;3.13;;;11.20;99.90;;;11.87;100.00;98729.09;5029025;28;20473;-83
2021/12/31 01:41:28;;;;;;;8.40;2.77;;;11.10;99.90;;;11.90;100.00;98733.97;5027599;28;20508;-83
2021/12/31 01:44:04;;;;;;;2.23;1.90;;;11.10;99.90;;;11.88;100.00;98735.94;5023464;28;20885;-83
2021/12/31 01:46:36;;;;;;;6.03;2.07;;;11.10;99.90;;;11.88;100.00;98733.31;5023502;28;20470;-82
2021/12/31 01:49:17;;;;;;;15.83;2.80;;;11.10;99.90;;;11.87;100.00;98739.56;5020067;28;21592;-83
2021/12/31 01:51:49;;;;;;;6.23;1.93;;;11.10;99.90;;;11.85;100.00;98728.44;5025170;28;20984;-83
2021/12/31 01:54:20;;;;;;;12.13;2.13;;;11.10;99.90;;;11.85;100.00;98726.63;5026858;28;20796;-82
2021/12/31 01:56:54;;;;;;;7.73;2.67;;;11.00;99.90;;;11.86;100.00;98730.06;5026871;28;20490;-83
2021/12/31 01:59:24;;;;;;;9.10;2.20;;;11.10;99.90;;;11.86;100.00;98730.06;5027311;28;20564;-83
2021/12/31 02:01:56;;;;;;;6.30;2.17;;;11.10;99.90;;;11.83;100.00;98728.63;5025609;28;20466;-83
2021/12/31 02:04:29;;;;;;;7.60;2.23;;;11.10;99.90;;;11.85;100.00;98736.31;5025940;28;20470;-82
2021/12/31 02:06:59;;;;;;;11.13;2.30;;;11.10;99.90;;;11.85;100.00;98729.25;5024245;28;20494;-83
2021/12/31 02:09:35;;;;;;;9.87;2.00;;;11.10;99.90;;;11.86;100.00;98730.91;5024841;28;21173;-83
2021/12/31 02:12:06;;;;;;;6.53;2.70;;;11.20;99.90;;;11.84;100.00;98742.53;5023614;28;20469;-83
2021/12/31 02:14:38;;;;;;;4.87;2.40;;;11.10;99.90;;;11.85;100.00;98736.31;5022847;28;20540;-83
2021/12/31 02:17:10;;;;;;;5.37;2.90;;;11.10;99.90;;;11.86;100.00;98740.56;5022862;28;20498;-83
2021/12/31 02:19:43;;;;;;;8.83;2.70;;;11.10;99.90;;;11.85;100.00;98741.53;5025740;28;20458;-83
2021/12/31 02:22:17;;;;;;;6.40;2.23;;;11.10;99.90;;;11.84;100.00;98747.75;5026236;28;20879;-83
2021/12/31 02:24:47;;;;;;;5.70;2.30;;;11.10;99.90;;;11.86;100.00;98751.84;5027336;28;20497;-82
2021/12/31 02:27:17;;;;;;;12.10;2.73;;;11.10;99.90;;;11.84;100.00;98742.53;5021929;28;20541;-83
2021/12/31 02:29:49;;;;;;;6.10;2.53;;;11.20;99.90;;;11.85;100.00;98755.47;5026918;28;20490;-83
2021/12/31 02:32:19;;;;;;;11.53;2.97;;;11.10;99.90;;;11.86;100.00;98751.03;5024764;28;20691;-82
2021/12/31 02:34:51;;;;;;;10.80;2.50;;;11.20;99.90;;;11.84;100.00;98750.38;5023569;28;20450;-83
2021/12/31 02:37:23;;;;;;;14.17;3.40;;;11.10;99.90;;;11.83;100.00;98756.63;5027084;28;20497;-83
2021/12/31 02:39:53;;;;;;;11.93;3.07;;;11.10;99.90;;;11.83;100.00;98757.47;5024095;28;20790;-83
2021/12/31 02:42:23;;;;;;;9.23;2.57;;;11.10;99.90;;;11.84;100.00;98755.63;5023199;28;20461;-82
2021/12/31 02:44:55;;;;;;;6.63;2.47;;;11.10;99.90;;;11.84;100.00;98753.81;5030750;28;20473;-83
2021/12/31 02:47:25;;;;;;;7.17;2.20;;;11.10;99.90;;;11.84;100.00;98758.25;5026083;28;20844;-82
2021/12/31 02:49:56;;;;;;;6.43;2.40;;;11.10;99.90;;;11.84;100.00;98766.09;5024427;28;20512;-82
2021/12/31 02:52:28;;;;;;;8.43;3.00;;;11.10;99.90;;;11.80;100.00;98752.53;5023825;28;20466;-82
2021/12/31 02:55:02;;;;;;;12.70;3.07;;;11.00;99.90;;;11.81;100.00;98753.38;5022494;28;20513;-83
2021/12/31 02:57:32;;;;;;;6.17;3.67;;;11.00;99.90;;;11.77;100.00;98746.84;5030728;28;20493;-82
2021/12/31 03:00:03;;;;;;;10.00;2.20;;;10.90;99.90;;;11.79;100.00;98742.25;5030669;28;20511;-82
2021/12/31 03:02:38;;;;;;;7.00;2.30;;;11.00;99.90;;;11.81;100.00;98748.94;5025140;28;20524;-82
2021/12/31 03:05:11;;;;;;;17.60;2.80;;;11.00;99.90;;;11.79;100.00;98737.03;5031729;28;20552;-83
2021/12/31 03:07:46;;;;;;;15.90;3.23;;;11.00;99.90;;;11.79;100.00;98745.69;5031165;28;20466;-82
2021/12/31 03:10:18;;;;;;;13.20;2.70;;;11.00;99.90;;;11.79;100.00;98735.22;5028460;28;20458;-82
2021/12/31 03:12:52;;;;;;;5.73;2.27;;;11.00;99.90;;;11.79;100.00;98727.34;5035702;28;20464;-82
2021/12/31 03:15:24;;;;;;;12.93;2.50;;;11.00;99.90;;;11.79;100.00;98722.13;5027653;28;20532;-82
2021/12/31 03:18:00;;;;;;;6.17;2.10;;;11.00;99.90;;;11.79;100.00;98729.16;5025925;28;20533;-83
2021/12/31 03:20:38;;;;;;;7.83;2.20;;;11.00;99.90;;;11.75;100.00;98722.63;5029555;28;21060;-82
2021/12/31 03:23:10;;;;;;;12.33;2.80;;;11.00;99.90;;;11.72;100.00;98723.00;5030221;28;20615;-82
2021/12/31 03:25:41;;;;;;;7.70;1.73;;;10.90;99.90;;;11.67;100.00;98725.28;5032296;28;20521;-83
2021/12/31 03:28:13;;;;;;;4.37;1.70;;;10.80;99.90;;;11.63;100.00;98717.78;5023826;28;20491;-83
2021/12/31 03:30:43;;;;;;;7.70;2.10;;;10.80;99.90;;;11.61;100.00;98722.41;5025038;28;20479;-83
2021/12/31 03:33:13;;;;;;;6.70;2.43;;;10.70;99.90;;;11.60;100.00;98720.75;5028254;28;20961;-83
2021/12/31 03:35:43;;;;;;;7.87;2.27;;;10.80;99.90;;;11.55;100.00;98725.72;5028150;28;20474;-82
2021/12/31 03:38:16;;;;;;;4.30;1.87;;;10.70;99.90;;;11.50;100.00;98722.81;5027413;28;20501;-83
2021/12/31 03:40:46;;;;;;;9.30;2.40;;;10.70;99.90;;;11.48;100.00;98724.00;5029175;28;20466;-83
2021/12/31 03:43:16;;;;;;;5.03;1.87;;;10.60;99.90;;;11.49;100.00;98717.75;5031588;28;21015;-83
2021/12/31 03:45:50;;;;;;;5.63;1.77;;;10.60;99.90;;;11.40;100.00;98719.63;5023327;28;20516;-83
2021/12/31 03:48:20;;;;;;;10.40;2.60;;;10.60;99.90;;;11.32;100.00;98711.00;5026418;28;20469;-83
2021/12/31 03:50:51;;;;;;;13.67;2.73;;;10.40;99.90;;;11.28;100.00;98702.69;5027649;28;20474;-83
2021/12/31 03:53:22;;;;;;;12.67;2.07;;;10.40;99.90;;;11.25;100.00;98708.28;5021283;28;20466;-83
2021/12/31 03:55:52;;;;;;;5.40;2.10;;;10.30;99.90;;;11.20;100.00;98702.75;5028374;28;20462;-83
2021/12/31 03:58:21;;;;;;;7.17;2.83;;;10.30;99.90;;;11.14;100.00;98703.47;5032230;28;20553;-83
2021/12/31 04:00:51;;;;;;;12.27;2.37;;;10.20;99.90;;;11.10;100.00;98696.94;5023173;28;20959;-83
2021/12/31 04:03:22;;;;;;;5.80;1.53;;;10.20;99.90;;;11.08;100.00;98696.28;5030129;28;20454;-83
2021/12/31 04:05:53;;;;;;;7.13;2.23;;;10.20;99.90;;;11.03;100.00;98696.00;5022848;28;20473;-83
2021/12/31 04:08:24;;;;;;;3.63;1.97;;;10.10;99.90;;;10.97;100.00;98694.88;5028816;28;20496;-83
2021/12/31 04:10:55;;;;;;;5.00;1.90;;;10.20;99.90;;;10.93;100.00;98685.75;5027815;28;20536;-83
2021/12/31 04:13:26;;;;;;;7.73;2.03;;;10.10;99.90;;;10.92;100.00;98686.75;5027044;28;20540;-83
2021/12/31 04:15:56;;;;;;;10.73;2.47;;;10.10;99.90;;;10.84;100.00;98692.03;5025805;28;20468;-83
2021/12/31 04:18:27;;;;;;;4.97;1.90;;;10.10;99.90;;;10.77;100.00;98679.81;5028347;28;21035;-83
2021/12/31 04:20:58;;;;;;;10.80;2.40;;;10.00;99.90;;;10.72;100.00;98674.28;5027310;28;20850;-83
2021/12/31 04:23:34;;;;;;;12.13;2.37;;;9.90;99.90;;;10.70;100.00;98678.84;5027839;28;20970;-83
2021/12/31 04:26:06;;;;;;;4.90;2.30;;;9.90;99.90;;;10.59;100.00;98673.03;5027769;28;20462;-83
2021/12/31 04:28:36;;;;;;;8.50;1.90;;;9.80;99.90;;;10.51;100.00;98673.09;5032849;28;20466;-83
2021/12/31 04:31:07;;;;;;;6.30;2.50;;;9.60;99.90;;;10.49;100.00;98667.19;5026741;28;21097;-83
2021/12/31 04:33:36;;;;;;;2.97;2.07;;;9.60;99.90;;;10.50;100.00;98679.31;5015693;28;20788;-83
2021/12/31 04:36:05;;;;;;;13.10;2.10;;;9.60;99.90;;;10.52;100.00;98669.47;5020175;28;20581;-81
2021/12/31 04:38:37;;;;;;;57.27;27.20;;;9.80;99.90;;;10.54;100.00;98672.75;5027329;28;20497;-83
2021/12/31 04:41:06;;;;;;;14.13;4.00;;;9.70;99.90;;;10.50;100.00;98668.84;5024709;28;20465;-83
2021/12/31 04:43:37;;;;;;;11.53;3.57;;;9.70;99.90;;;10.55;100.00;98665.72;5026638;28;20537;-82
2021/12/31 04:46:08;;;;;;;6.10;2.70;;;9.70;99.90;;;10.56;100.00;98672.56;5027122;28;20569;-83
2021/12/31 04:48:38;;;;;;;8.13;2.43;;;9.70;99.90;;;10.55;100.00;98676.19;5021598;28;20464;-81
2021/12/31 04:51:08;;;;;;;4.30;2.20;;;9.70;99.90;;;10.50;100.00;98668.84;5016787;28;20669;-81
2021/12/31 04:53:39;;;;;;;6.73;2.93;;;9.70;99.90;;;10.48;100.00;98673.41;5028783;28;20454;-81
2021/12/31 04:56:09;;;;;;;10.30;3.10;;;9.70;99.90;;;10.49;100.00;98677.66;5029720;28;20450;-80
2021/12/31 04:58:39;;;;;;;8.90;2.10;;;9.60;99.90;;;10.49;100.00;98675.03;5031722;28;20477;-81
2021/12/31 05:01:10;;;;;;;4.17;2.57;;;9.70;99.90;;;10.49;100.00;98684.69;5026552;28;20550;-81
2021/12/31 05:03:42;;;;;;;8.70;2.10;;;9.80;99.90;;;10.51;100.00;98686.16;5020514;28;20993;-81
2021/12/31 05:06:13;;;;;;;5.03;2.60;;;9.70;99.90;;;10.51;100.00;98685.34;5022182;28;20458;-80
2021/12/31 05:08:45;;;;;;;22.60;10.17;;;9.80;99.90;;;10.55;100.00;98691.88;5020551;28;20470;-81
2021/12/31 05:11:15;;;;;;;16.83;3.40;;;9.80;99.90;;;10.56;100.00;98696.09;5019774;28;20523;-80
2021/12/31 05:13:44;;;;;;;6.03;2.60;;;9.70;99.90;;;10.54;100.00;98688.44;5028785;28;20461;-81
2021/12/31 05:16:14;;;;;;;14.90;7.77;;;9.70;99.90;;;10.57;100.00;98685.47;5022980;28;20485;-80
2021/12/31 05:18:44;;;;;;;15.13;4.40;;;9.80;99.90;;;10.61;100.00;98691.19;5019698;28;21071;-81
2021/12/31 05:21:15;;;;;;;4.43;2.40;;;9.80;99.90;;;10.64;100.00;98690.84;5030243;28;20490;-78
2021/12/31 05:23:46;;;;;;;8.10;3.37;;;9.90;99.90;;;10.65;100.00;98686.44;5025731;28;20776;-80
2021/12/31 05:26:17;;;;;;;8.47;3.00;;;9.90;99.90;;;10.68;100.00;98696.53;5022394;28;20462;-79
2021/12/31 05:28:47;;;;;;;24.63;11.70;;;9.90;99.90;;;10.64;100.00;98696.06;5023771;28;20466;-80
2021/12/31 05:31:17;;;;;;;19.97;8.80;;;9.90;99.90;;;10.66;100.00;98693.25;5022733;28;20909;-80
2021/12/31 05:33:48;;;;;;;7.53;3.10;;;9.90;99.90;;;10.69;100.00;98698.19;5017857;28;20463;-82
2021/12/31 05:36:19;;;;;;;11.13;2.90;;;9.90;99.90;;;10.67;100.00;98700.94;5024477;28;20502;-81
2021/12/31 05:38:51;;;;;;;10.53;2.73;;;9.90;99.90;;;10.69;100.00;98708.63;5027445;28;20492;-81
2021/12/31 05:41:20;;;;;;;5.57;2.57;;;9.90;99.90;;;10.62;100.00;98720.78;5027433;28;20454;-81
2021/12/31 05:43:52;;;;;;;7.10;2.67;;;9.80;99.90;;;10.57;100.00;98710.81;5030005;28;20446;-81
2021/12/31 05:46:23;;;;;;;15.60;2.57;;;9.70;99.90;;;10.50;100.00;98713.28;5030116;28;20442;-81
2021/12/31 05:48:53;;;;;;;6.17;2.47;;;9.60;99.90;;;10.52;100.00;98713.09;5029716;28;20446;-81
2021/12/31 05:51:26;;;;;;;7.70;2.47;;;9.70;99.90;;;10.50;100.00;98721.13;5027717;28;20440;-81
2021/12/31 05:53:58;;;;;;;5.20;2.50;;;9.70;99.90;;;10.47;100.00;98716.25;5029626;28;20939;-81
2021/12/31 05:56:28;;;;;;;4.87;2.30;;;9.60;99.90;;;10.36;100.00;98714.00;5029761;28;20516;-81
2021/12/31 05:58:59;;;;;;;5.90;2.20;;;9.40;99.90;;;10.24;100.00;98697.03;5025414;28;20490;-81
2021/12/31 06:01:28;;;;;;;4.80;2.40;;;9.30;99.90;;;10.26;100.00;98699.50;5029967;28;20502;-81
2021/12/31 06:03:58;;;;;;;6.73;2.53;;;9.40;99.90;;;10.21;100.00;98700.00;5029411;28;20449;-81
2021/12/31 06:06:28;;;;;;;5.30;2.03;;;9.40;99.90;;;10.11;100.00;98694.13;5029423;28;20516;-81
2021/12/31 06:09:00;;;;;;;9.70;2.00;;;9.20;99.90;;;10.08;100.00;98689.22;5024266;28;20450;-81
2021/12/31 06:11:31;;;;;;;7.37;2.37;;;9.20;99.90;;;10.07;100.00;98687.59;5033823;28;20531;-81
2021/12/31 06:14:03;;;;;;;2.60;2.33;;;9.20;99.90;;;9.96;100.00;98683.53;5029349;28;20488;-81
2021/12/31 06:16:37;;;;;;;5.00;2.60;;;9.10;99.90;;;9.99;100.00;98685.00;5024020;28;20973;-81
2021/12/31 06:19:08;;;;;;;3.33;2.43;;;9.10;99.90;;;9.94;100.00;98687.31;5028969;28;20497;-81
2021/12/31 06:21:42;;;;;;;10.20;2.37;;;9.10;99.90;;;9.90;100.00;98691.22;5019997;28;20804;-81
2021/12/31 06:24:17;;;;;;;3.20;2.67;;;9.00;99.90;;;9.81;100.00;98684.41;5018223;28;20572;-81
2021/12/31 06:26:48;;;;;;;4.13;2.50;;;8.90;99.90;;;9.79;100.00;98670.69;5029659;28;20442;-81
2021/12/31 06:29:19;;;;;;;5.03;2.73;;;9.00;99.90;;;9.63;100.00;98666.31;5035800;28;20465;-81
2021/12/31 06:31:48;;;;;;;5.70;2.40;;;8.80;99.90;;;9.66;100.00;98684.25;5035263;28;20474;-81
2021/12/31 06:34:18;;;;;;;7.63;2.80;;;8.90;99.90;;;9.70;100.00;98689.97;5032639;28;20449;-81
2021/12/31 06:36:49;;;;;;;8.37;2.90;;;8.90;99.90;;;9.56;100.00;98694.88;5035828;28;20470;-81
2021/12/31 06:39:20;;;;;;;4.10;2.53;;;8.70;99.90;;;9.44;100.00;98696.16;5035750;28;20570;-81
2021/12/31 06:41:50;;;;;;;4.20;2.50;;;8.60;99.90;;;9.48;100.00;98691.44;5035811;28;20453;-81
2021/12/31 06:44:20;;;;;;;7.23;2.77;;;8.60;99.90;;;9.39;100.00;98698.47;5035878;28;20438;-82
2021/12/31 06:46:52;;;;;;;6.13;3.30;;;8.60;99.90;;;9.41;100.00;98693.06;5035495;28;20468;-81
2021/12/31 06:49:22;;;;;;;16.07;5.33;;;8.50;99.90;;;9.45;100.00;98697.00;5029374;28;20462;-81
2021/12/31 06:51:54;;;;;;;7.37;2.83;;;8.60;99.90;;;9.46;100.00;98694.22;5035706;28;20445;-81
2021/12/31 06:54:27;;;;;;;5.53;3.03;;;8.60;99.90;;;9.35;100.00;98697.16;5027264;28;20943;-81
2021/12/31 06:56:57;;;;;;;8.77;2.53;;;8.40;99.90;;;9.29;100.00;98697.81;5038594;28;20442;-81
2021/12/31 06:59:29;;;;;;;5.77;3.47;;;8.40;99.90;;;9.36;100.00;98693.59;5035604;28;20970;-82
2021/12/31 07:01:59;;;;;;;7.50;3.60;;;8.50;99.90;;;9.30;100.00;98699.44;5039323;28;20454;-82
2021/12/31 07:04:29;;;;;;;12.37;3.30;;;8.40;99.90;;;9.33;100.00;98698.31;5028572;28;20446;-81
2021/12/31 07:06:59;;;;;;;5.90;2.93;;;8.50;99.90;;;9.37;100.00;98704.84;5035005;28;20449;-82
2021/12/31 07:09:32;;;;;;;9.87;3.40;;;8.50;99.90;;;9.37;100.00;98695.19;5033630;28;20915;-81
2021/12/31 07:12:03;;;;;;;5.50;3.13;;;8.50;99.90;;;9.39;100.00;98688.03;5035230;28;20465;-82
2021/12/31 07:14:34;;;;;;;3.73;2.80;;;8.60;99.90;;;9.37;100.00;98682.13;5035654;28;20450;-81
2021/12/31 07:17:03;;;;;;;3.33;2.70;;;8.50;99.90;;;9.38;100.00;98681.16;5035097;28;20446;-81
2021/12/31 07:19:33;;;;;;;4.30;3.13;;;8.60;99.90;;;9.41;100.00;98680.84;5035185;28;20929;-81
2021/12/31 07:22:04;;;;;;;19.53;3.60;;;8.60;99.90;;;9.37;100.00;98684.75;5033478;28;20500;-81
2021/12/31 07:24:36;;;;;;;3.80;3.20;;;8.60;99.90;;;9.43;100.00;98678.06;5034602;28;20534;-82
2021/12/31 07:27:07;;;;;;;5.80;3.43;;;8.70;99.90;;;9.47;100.00;98690.66;5035518;28;20442;-81
2021/12/31 07:29:38;;;;;;;6.67;3.60;;;8.70;99.90;;;9.51;100.00;98676.25;5035211;28;20890;-81
2021/12/31 07:32:08;;;;;;;9.47;3.57;;;8.80;99.90;;;9.47;100.00;98682.00;5035112;28;20485;-82
2021/12/31 07:34:39;;;;;;;7.23;3.57;;;8.70;99.90;;;9.52;100.00;98690.97;5037465;28;20551;-81
2021/12/31 07:37:09;;;;;;;6.03;3.47;;;8.80;99.90;;;9.55;100.00;98682.78;5036317;28;20509;-81
2021/12/31 07:39:46;;;;;;;11.13;2.70;;;8.80;99.90;;;9.55;100.00;98688.00;5029782;28;20491;-81
2021/12/31 07:42:17;;;;;;;9.00;3.33;;;8.80;99.90;;;9.59;100.00;98683.28;5028750;28;20942;-81
2021/12/31 07:44:47;;;;;;;16.13;3.70;;;8.80;99.90;;;9.63;100.00;98694.22;5032377;28;20866;-81
2021/12/31 07:47:18;;;;;;;10.27;3.90;;;8.90;99.90;;;9.60;100.00;98696.19;5031909;28;20446;-81
2021/12/31 07:49:49;;;;;;;7.10;3.50;;;8.80;99.90;;;9.63;100.00;98694.22;5040074;28;20446;-81
2021/12/31 07:52:19;;;;;;;17.10;3.73;;;8.80;99.90;;;9.68;100.00;98699.75;5029872;28;20446;-81
2021/12/31 07:54:50;;;;;;;10.03;3.67;;;8.90;99.90;;;9.72;100.00;98701.06;5032145;28;20450;-81
2021/12/31 07:57:20;;;;;;;16.80;3.73;;;8.90;99.90;;;9.73;100.00;98702.69;5022782;28;20516;-81
2021/12/31 07:59:50;;;;;;;6.73;3.47;;;9.00;99.90;;;9.76;100.00;98694.50;5031823;28;20489;-81
2021/12/31 08:02:20;;;;;;;9.50;3.40;;;9.00;99.90;;;9.78;100.00;98687.34;5033538;28;20860;-81
2021/12/31 08:04:50;;;;;;;7.63;3.77;;;9.10;99.90;;;9.79;100.00;98691.59;5023236;28;20450;-80
2021/12/31 08:07:21;;;;;;;7.63;4.07;;;9.10;99.90;;;9.81;100.00;98702.69;5031084;28;20446;-81
2021/12/31 08:09:54;;;;;;;10.40;3.23;;;9.10;99.90;;;9.78;100.00;98703.00;5027656;28;20982;-81
2021/12/31 08:12:43;;;;;;;6.87;3.37;;;9.00;99.90;;;9.84;100.00;98704.97;5029996;28;20562;-81
2021/12/31 08:15:13;;;;;;;5.47;3.43;;;9.10;99.90;;;9.88;100.00;98698.44;5030659;28;20442;-81
2021/12/31 08:17:42;;;;;;;18.93;6.53;;;9.10;99.90;;;9.93;100.00;98709.19;5031149;28;20994;-81
2021/12/31 08:20:13;;;;;;;9.43;5.40;;;9.20;99.90;;;9.97;100.00;98711.28;5027037;28;20497;-81
2021/12/31 08:22:43;;;;;;;13.27;6.90;;;9.30;99.90;;;10.04;100.00;98724.50;5031416;28;20533;-81
2021/12/31 08:25:13;;;;;;;27.03;9.70;;;9.40;99.90;;;10.11;100.00;98725.47;5031330;28;20943;-81
2021/12/31 08:27:43;;;;;;;24.60;9.87;;;9.50;99.90;;;10.17;100.00;98729.25;5031409;28;20446;-80
2021/12/31 08:30:15;;;;;;;22.80;10.23;;;9.50;99.90;;;10.23;100.00;98732.00;5031121;28;20477;-80
2021/12/31 08:32:44;;;;;;;20.67;10.77;;;9.60;99.90;;;10.28;100.00;98748.00;5029139;28;20520;-81
2021/12/31 08:35:15;;;;;;;16.90;8.47;;;9.60;99.90;;;10.29;100.00;98748.81;5028153;28;20479;-81
2021/12/31 08:37:43;;;;;;;15.40;8.40;;;9.60;99.90;;;10.33;100.00;98750.94;5030095;28;20442;-81
2021/12/31 08:40:16;;;;;;;13.83;8.20;;;9.70;99.90;;;10.37;100.00;98747.00;5031090;28;20493;-81
2021/12/31 08:42:46;;;;;;;15.10;7.83;;;9.80;99.90;;;10.34;100.00;98744.75;5026579;28;20512;-81
2021/12/31 08:45:19;;;;;;;13.00;7.00;;;9.70;99.90;;;10.29;100.00;98749.63;5030579;28;20452;-81
2021/12/31 08:47:49;;;;;;;16.20;8.27;;;9.70;99.90;;;10.31;100.00;98750.28;5038368;28;20880;-81
2021/12/31 08:50:19;;;;;;;16.17;6.97;;;9.70;99.90;;;10.30;100.00;98745.22;5030174;28;20454;-81
2021/12/31 08:52:49;;;;;;;13.30;7.83;;;9.60;99.90;;;10.29;100.00;98738.38;5030248;28;20457;-81
2021/12/31 08:55:21;;;;;;;14.93;7.70;;;9.60;99.90;;;10.29;100.00;98731.34;5030712;28;20512;-81
2021/12/31 08:57:50;;;;;;;10.60;6.77;;;9.60;99.90;;;10.37;100.00;98731.31;5030141;28;20524;-81
2021/12/31 09:00:20;;;;;;;12.63;7.30;;;9.70;99.90;;;10.34;100.00;98736.06;5029425;28;20442;-81
2021/12/31 09:02:50;;;;;;;17.27;7.00;;;9.70;99.90;;;10.35;100.00;98735.88;5030452;28;20454;-81
2021/12/31 09:05:20;;;;;;;17.40;8.00;;;9.60;99.90;;;10.39;100.00;98729.34;5026650;28;20453;-81
2021/12/31 09:07:50;;;;;;;14.80;7.13;;;9.70;99.90;;;10.36;100.00;98727.06;5038109;28;20445;-81
2021/12/31 09:10:23;;;;;;;12.37;7.63;;;9.70;99.90;;;10.38;100.00;98727.69;5030377;28;20449;-81
2021/12/31 09:12:52;;;;;;;16.93;7.10;;;9.70;99.90;;;10.41;100.00;98731.81;5024292;28;20474;-81
2021/12/31 09:15:22;;;;;;;9.70;5.83;;;9.70;99.90;;;10.40;100.00;98732.78;5032315;28;20442;-81
2021/12/31 09:17:55;;;;;;;14.00;7.17;;;9.70;99.90;;;10.37;100.00;98726.09;5030254;28;20478;-81
2021/12/31 09:20:23;;;;;;;15.03;7.23;;;9.70;99.90;;;10.37;100.00;98733.94;5029846;28;20501;-81
2021/12/31 09:22:54;;;;;;;13.50;6.60;;;9.70;99.90;;;10.39;100.00;98736.38;5028557;28;20446;-81
2021/12/31 09:25:25;;;;;;;11.97;6.87;;;9.70;99.90;;;10.38;100.00;98726.88;5030293;28;20454;-81
2021/12/31 09:27:54;;;;;;;14.37;7.07;;;9.70;99.90;;;10.43;100.00;98729.81;5030126;28;21001;-81
2021/12/31 09:30:24;;;;;;;20.17;8.20;;;9.80;99.90;;;10.51;100.00;98733.22;5032359;28;20492;-81
2021/12/31 09:32:53;;;;;;;16.00;7.20;;;9.90;99.90;;;10.62;100.00;98720.78;5031066;28;20462;-81
2021/12/31 09:35:23;;;;;;;14.50;7.30;;;10.00;99.90;;;10.60;100.00;98724.34;5029392;28;20469;-81
2021/12/31 09:37:54;;;;;;;12.90;6.80;;;9.90;99.90;;;10.62;100.00;98718.16;5029719;28;20951;-81
2021/12/31 09:40:27;;;;;;;13.20;7.40;;;9.90;99.90;;;10.68;100.00;98722.69;5034727;28;20467;-81
2021/12/31 09:43:07;;;;;;;12.67;6.63;;;10.00;99.90;;;10.65;100.00;98723.03;5031317;28;20468;-81
2021/12/31 09:45:40;;;;;;;12.23;6.60;;;10.00;99.90;;;10.64;100.00;98717.00;5038588;28;20845;-81
2021/12/31 09:48:12;;;;;;;10.40;6.70;;;10.00;99.90;;;10.59;100.00;98720.09;5029336;28;20458;-81
2021/12/31 09:50:46;;;;;;;10.70;6.23;;;9.90;99.90;;;10.66;100.00;98715.00;5029643;28;20454;-81
2021/12/31 09:53:17;;;;;;;13.00;7.10;;;10.00;99.90;;;10.72;100.00;98721.38;5038018;28;20949;-81
2021/12/31 09:55:49;;;;;;;12.90;7.20;;;10.10;99.90;;;10.80;100.00;98721.31;5027786;28;20450;-81
2021/12/31 09:58:23;;;;;;;11.30;6.40;;;10.20;99.90;;;10.85;100.00;98724.25;5023610;28;20538;-81
2021/12/31 10:01:00;;;;;;;12.80;6.73;;;10.30;99.90;;;10.88;100.00;98729.13;5029533;28;20461;-81
2021/12/31 10:03:32;;;;;;;10.43;6.70;;;10.30;99.90;;;10.90;100.00;98741.03;5025782;28;20443;-81
2021/12/31 10:06:06;;;;;;;10.80;6.60;;;10.30;99.90;;;10.93;100.00;98743.31;5027028;28;20442;-81
2021/12/31 10:08:44;;;;;;;19.60;7.47;;;10.30;99.90;;;10.96;100.00;98742.16;5029587;28;20441;-81
2021/12/31 10:11:18;;;;;;;15.73;7.17;;;10.40;99.90;;;10.99;100.00;98747.88;5028101;28;20469;-81
2021/12/31 10:13:56;;;;;;;9.67;6.33;;;10.40;99.90;;;11.05;100.00;98746.38;5028725;28;20440;-81
2021/12/31 10:16:27;;;;;;;17.93;6.90;;;10.40;99.90;;;11.05;100.00;98752.41;5029395;28;20935;-81
2021/12/31 10:19:09;;;;;;;12.43;7.40;;;10.50;99.90;;;11.07;100.00;98760.09;5029483;28;20453;-81
2021/12/31 10:21:42;;;;;;;11.13;7.27;;;10.50;99.90;;;11.08;100.00;98757.31;5028937;28;21096;-81
2021/12/31 10:24:47;;;;;;;14.53;7.40;;;10.60;99.90;;;11.03;100.00;98753.59;5028360;28;20449;-81
2021/12/31 10:27:20;;;;;;;11.23;7.00;;;10.40;99.90;;;11.10;100.00;98747.50;5028535;28;20450;-81
2021/12/31 10:29:54;;;;;;;8.37;6.33;;;10.50;99.90;;;11.08;100.00;98746.84;5024661;28;21092;-81
2021/12/31 10:32:30;;;;;;;9.47;6.37;;;10.40;99.90;;;11.11;100.00;98750.91;5029311;28;20489;-81
2021/12/31 10:35:10;;;;;;;11.83;6.70;;;10.50;99.90;;;11.15;100.00;98762.66;5029021;28;20477;-81
2021/12/31 10:37:45;;;;;;;9.10;6.43;;;10.50;99.90;;;11.21;100.00;98767.19;5028448;28;20454;-81
2021/12/31 10:40:29;;;;;;;10.37;6.97;;;10.60;99.90;;;11.24;100.00;98774.72;5029284;28;20446;-81